LATI/TIA METAR and TAF weather

Enter ICAO airport designator
Station Type Date Time Source
LATI METAR 2021/09/27 07:20 UTC NOAA

LATI 270720Z 19003KT 150V230 CAVOK 22/09 Q1018 NOSIG


Station Type Date Time Source
LATI Decoded METAR 2021/09/27 07:20 UTC NOAA

Tirana, Albania (LATI) 41-20N 019-47E 90M
Sep 27, 2021 - 03:20 AM EDT / 2021.09.27 0720 UTC
Wind: from the S (190 degrees) at 3 MPH (3 KT) (direction variable):0
Visibility: greater than 7 mile(s):0
Temperature: 71 F (22 C)
Dew Point: 48 F (9 C)
Relative Humidity: 43%
Pressure (altimeter): 30.06 in. Hg (1018 hPa)
ob: LATI 270720Z 19003KT 150V230 CAVOK 22/09 Q1018 NOSIG
cycle: 7

Station Type Date Time Source
LATI TAF 2021/09/27 06:06 UTC NOAA

TAF TAF LATI 270500Z 2706/2806 VRB05KT CAVOK TX31/2712Z TN13/2803Z
TEMPO 2710/2717 32010KT FEW040 SCT100

Example: see airport list